createdAt,value
2022-07-26T00:01:10.372Z,16.20
2022-07-26T00:07:36.794Z,16.30
2022-07-26T00:10:42.591Z,16.40
2022-07-26T00:13:47.732Z,16.20
2022-07-26T00:16:51.114Z,16.20
2022-07-26T00:19:54.463Z,16.10
2022-07-26T00:22:57.806Z,16.00
2022-07-26T00:26:01.104Z,15.90
2022-07-26T00:29:06.537Z,15.80
2022-07-26T00:32:10.217Z,15.70
2022-07-26T00:35:13.574Z,15.60
2022-07-26T00:38:16.902Z,15.50
2022-07-26T00:41:20.343Z,15.50
2022-07-26T00:44:25.085Z,15.40
2022-07-26T00:47:28.388Z,15.30
2022-07-26T00:50:31.884Z,15.30
2022-07-26T00:53:35.180Z,15.20
2022-07-26T00:56:40.084Z,15.20
2022-07-26T01:03:29.269Z,15.10
2022-07-26T01:06:42.957Z,15.10
2022-07-26T01:09:46.352Z,15.00
2022-07-26T01:12:49.794Z,15.00
2022-07-26T01:15:54.554Z,14.90
2022-07-26T01:18:57.981Z,14.90
2022-07-26T01:22:02.796Z,14.90
2022-07-26T01:25:07.279Z,14.80
2022-07-26T01:28:10.582Z,14.80
2022-07-26T01:31:13.899Z,14.80
2022-07-26T01:34:17.623Z,14.70
2022-07-26T01:37:24.465Z,14.70
2022-07-26T01:40:27.815Z,14.60
2022-07-26T01:43:31.144Z,14.50
2022-07-26T01:46:34.651Z,14.50
2022-07-26T01:49:37.943Z,14.50
2022-07-26T01:52:42.610Z,14.40
2022-07-26T01:55:45.844Z,14.40
2022-07-26T01:58:49.584Z,14.40
2022-07-26T02:01:52.982Z,14.40
2022-07-26T02:05:02.066Z,14.40
2022-07-26T02:08:06.936Z,14.40
2022-07-26T02:11:10.493Z,14.40
2022-07-26T02:14:13.749Z,14.40
2022-07-26T02:17:29.532Z,14.40
2022-07-26T02:20:33.370Z,14.30
2022-07-26T02:23:41.307Z,14.30
2022-07-26T02:26:45.245Z,14.20
2022-07-26T02:29:48.483Z,14.10
2022-07-26T02:32:51.774Z,14.10
2022-07-26T02:35:55.005Z,14.10
2022-07-26T02:38:59.632Z,14.00
2022-07-26T02:42:05.154Z,13.90
2022-07-26T02:45:09.868Z,13.90
2022-07-26T02:48:13.121Z,13.90
2022-07-26T02:51:16.466Z,14.00
2022-07-26T02:54:21.059Z,14.00
2022-07-26T02:57:24.364Z,14.00
2022-07-26T03:00:28.113Z,14.00
2022-07-26T03:03:31.565Z,14.00
2022-07-26T03:06:39.872Z,14.00
2022-07-26T03:09:44.551Z,13.90
2022-07-26T03:12:47.818Z,13.90
2022-07-26T03:15:51.195Z,14.00
2022-07-26T03:18:54.450Z,14.00
2022-07-26T03:21:57.721Z,14.00
2022-07-26T03:25:02.343Z,14.10
2022-07-26T03:28:06.016Z,14.10
2022-07-26T03:31:09.372Z,14.10
2022-07-26T03:34:12.683Z,14.20
2022-07-26T03:37:15.998Z,14.30
2022-07-26T03:40:21.127Z,14.40
2022-07-26T03:43:24.381Z,14.50
2022-07-26T03:46:27.785Z,14.70
2022-07-26T03:49:31.173Z,14.70
2022-07-26T03:52:34.732Z,14.80
2022-07-26T03:55:56.797Z,15.10
2022-07-26T03:59:02.007Z,15.30
2022-07-26T04:02:05.407Z,15.50
2022-07-26T04:05:09.509Z,15.60
2022-07-26T04:08:12.763Z,15.70
2022-07-26T04:11:17.448Z,15.90
2022-07-26T04:14:21.275Z,16.00
2022-07-26T04:17:24.620Z,16.20
2022-07-26T04:20:27.956Z,16.30
2022-07-26T04:23:31.350Z,16.50
2022-07-26T04:26:36.203Z,16.70
2022-07-26T04:29:39.469Z,17.00
2022-07-26T04:32:42.748Z,17.10
2022-07-26T04:35:46.506Z,17.20
2022-07-26T04:38:49.755Z,17.30
2022-07-26T04:41:54.391Z,17.50
2022-07-26T04:44:57.625Z,17.70
2022-07-26T04:48:00.858Z,17.80
2022-07-26T04:51:04.286Z,18.00
2022-07-26T04:54:07.947Z,18.30
2022-07-26T04:57:12.883Z,18.40
2022-07-26T05:00:22.890Z,18.60
2022-07-26T05:03:27.117Z,18.80
2022-07-26T05:06:32.197Z,19.00
2022-07-26T05:09:35.497Z,19.00
2022-07-26T05:12:40.257Z,19.20
2022-07-26T05:15:43.671Z,19.40
2022-07-26T05:18:49.098Z,19.50
2022-07-26T05:21:52.765Z,19.60
2022-07-26T05:24:56.094Z,19.60
2022-07-26T05:28:01.034Z,19.60
2022-07-26T05:31:04.474Z,19.90
2022-07-26T05:34:08.564Z,19.90
2022-07-26T05:37:12.574Z,20.00
2022-07-26T05:40:16.029Z,20.10
2022-07-26T05:43:20.789Z,20.20
2022-07-26T05:46:24.153Z,20.40
2022-07-26T05:49:27.502Z,20.60
2022-07-26T05:52:43.308Z,20.80
2022-07-26T05:55:46.681Z,20.90
2022-07-26T05:58:51.356Z,21.00
2022-07-26T06:01:56.523Z,21.10
2022-07-26T06:05:00.038Z,21.20
2022-07-26T06:08:03.316Z,21.40
2022-07-26T06:11:07.244Z,21.50
2022-07-26T06:14:12.209Z,21.70
2022-07-26T06:17:15.798Z,21.70
2022-07-26T06:20:19.072Z,21.90
2022-07-26T06:23:34.262Z,21.90
2022-07-26T06:26:38.654Z,22.10
2022-07-26T06:29:43.329Z,22.40
2022-07-26T06:32:46.703Z,22.50
2022-07-26T06:35:50.043Z,22.70
2022-07-26T06:38:54.964Z,22.80
2022-07-26T06:41:58.338Z,23.00
2022-07-26T06:45:05.970Z,23.00
2022-07-26T06:48:11.257Z,23.00
2022-07-26T06:51:14.609Z,23.20
2022-07-26T06:54:17.887Z,23.30
2022-07-26T06:57:21.544Z,23.40
2022-07-26T07:00:26.236Z,23.60
2022-07-26T07:03:29.594Z,23.70
2022-07-26T07:06:32.972Z,23.90
2022-07-26T07:09:37.569Z,24.10
2022-07-26T07:12:41.813Z,24.20
2022-07-26T07:15:46.625Z,24.30
2022-07-26T07:18:51.359Z,24.40
2022-07-26T07:21:54.751Z,24.50
2022-07-26T07:24:58.490Z,24.60
2022-07-26T07:28:02.039Z,24.70
2022-07-26T07:31:07.346Z,24.70
2022-07-26T07:34:12.517Z,24.90
2022-07-26T07:37:22.721Z,25.00
2022-07-26T07:40:26.843Z,25.20
2022-07-26T07:43:30.286Z,25.30
2022-07-26T07:46:35.782Z,25.50
2022-07-26T07:49:39.181Z,25.60
2022-07-26T07:52:42.555Z,25.70
2022-07-26T07:55:46.830Z,25.80
2022-07-26T07:58:50.420Z,25.90
2022-07-26T08:01:57.187Z,25.90
2022-07-26T08:05:11.360Z,25.70
2022-07-26T08:08:18.000Z,25.60
2022-07-26T08:11:21.383Z,25.70
2022-07-26T08:14:24.877Z,25.70
2022-07-26T08:17:31.938Z,26.00
2022-07-26T08:20:38.058Z,26.30
2022-07-26T08:23:44.081Z,26.60
2022-07-26T08:26:47.458Z,26.90
2022-07-26T08:29:50.740Z,27.00
2022-07-26T08:32:56.894Z,27.20
2022-07-26T08:36:03.166Z,27.30
2022-07-26T08:39:06.915Z,27.50
2022-07-26T08:42:15.587Z,27.70
2022-07-26T08:45:23.753Z,27.60
2022-07-26T08:48:28.847Z,27.60
2022-07-26T08:51:32.767Z,27.90
2022-07-26T08:54:36.324Z,27.90
2022-07-26T08:57:39.742Z,28.30
2022-07-26T09:00:45.519Z,28.20
2022-07-26T09:03:50.942Z,28.40
2022-07-26T09:07:03.513Z,28.40
2022-07-26T09:10:08.969Z,28.40
2022-07-26T09:13:12.397Z,28.50
2022-07-26T09:16:16.259Z,28.40
2022-07-26T09:19:23.620Z,28.60
2022-07-26T09:22:27.068Z,28.70
2022-07-26T09:25:32.943Z,28.80
2022-07-26T09:28:37.281Z,28.80
2022-07-26T09:31:48.517Z,29.00
2022-07-26T09:34:58.893Z,29.00
2022-07-26T09:38:03.476Z,29.00
2022-07-26T09:41:19.518Z,29.00
2022-07-26T09:44:25.506Z,29.00
2022-07-26T09:47:39.766Z,29.00
2022-07-26T09:50:50.241Z,29.10
2022-07-26T09:53:55.346Z,29.40
2022-07-26T09:57:00.741Z,29.30
2022-07-26T10:00:05.897Z,29.60
2022-07-26T10:03:11.280Z,29.70
2022-07-26T10:06:16.101Z,30.10
2022-07-26T10:09:20.375Z,30.40
2022-07-26T10:12:30.603Z,30.40
2022-07-26T10:15:43.265Z,30.60
2022-07-26T10:18:47.404Z,30.60
2022-07-26T10:22:13.939Z,30.70
2022-07-26T10:25:50.461Z,30.70
2022-07-26T10:28:53.886Z,31.00
2022-07-26T10:32:20.526Z,30.80
2022-07-26T10:35:40.737Z,31.00
2022-07-26T10:39:02.709Z,31.20
2022-07-26T10:42:08.482Z,31.30
2022-07-26T10:45:19.314Z,31.10
2022-07-26T10:48:24.887Z,31.20
2022-07-26T10:51:30.841Z,31.40
2022-07-26T10:55:17.114Z,31.70
2022-07-26T10:58:21.052Z,31.60
2022-07-26T11:01:33.124Z,31.60
2022-07-26T11:04:36.609Z,31.80
2022-07-26T11:07:56.759Z,32.10
2022-07-26T11:11:07.400Z,32.30
2022-07-26T11:14:13.114Z,32.50
2022-07-26T11:17:25.955Z,32.70
2022-07-26T11:20:30.119Z,33.00
2022-07-26T11:23:35.494Z,33.10
2022-07-26T11:26:44.642Z,33.00
2022-07-26T11:29:50.225Z,32.90
2022-07-26T11:32:59.780Z,33.00
2022-07-26T11:36:05.079Z,33.80
2022-07-26T11:39:10.701Z,34.40
2022-07-26T11:42:19.504Z,35.20
2022-07-26T11:45:25.630Z,34.70
2022-07-26T11:48:29.702Z,34.10
2022-07-26T11:51:33.470Z,34.60
2022-07-26T11:54:47.064Z,35.50
2022-07-26T11:57:52.071Z,35.60
2022-07-26T12:00:55.514Z,35.50
2022-07-26T12:03:58.872Z,34.90
2022-07-26T12:07:04.431Z,34.80
2022-07-26T12:10:08.558Z,34.60
2022-07-26T12:13:15.012Z,34.60
2022-07-26T12:16:40.211Z,34.20
2022-07-26T12:19:44.129Z,33.80
2022-07-26T12:22:56.245Z,33.30
2022-07-26T12:25:59.572Z,33.40
2022-07-26T12:29:22.529Z,33.50
2022-07-26T12:32:33.243Z,34.00
2022-07-26T12:35:36.518Z,33.60
2022-07-26T12:38:40.754Z,33.80
2022-07-26T12:41:44.067Z,33.60
2022-07-26T12:44:48.855Z,33.10
2022-07-26T12:47:54.759Z,33.10
2022-07-26T12:50:58.994Z,33.30
2022-07-26T12:54:03.477Z,33.50
2022-07-26T12:57:06.865Z,33.00
2022-07-26T13:00:13.280Z,32.60
2022-07-26T13:03:16.637Z,32.20
2022-07-26T13:06:19.962Z,32.00
2022-07-26T13:09:23.340Z,31.40
2022-07-26T13:12:26.905Z,30.90
2022-07-26T13:15:37.424Z,30.60
2022-07-26T13:18:41.254Z,30.40
2022-07-26T13:21:47.998Z,30.90
2022-07-26T13:24:55.668Z,31.80
2022-07-26T13:27:59.656Z,32.60
2022-07-26T13:31:04.505Z,32.50
2022-07-26T13:34:08.326Z,32.30
2022-07-26T13:37:12.014Z,32.40
2022-07-26T13:40:16.739Z,32.30
2022-07-26T13:43:20.638Z,31.70
2022-07-26T13:46:33.469Z,31.00
2022-07-26T13:49:37.393Z,30.50
2022-07-26T13:52:40.886Z,29.90
2022-07-26T13:55:44.417Z,29.90
2022-07-26T13:58:47.762Z,29.60
2022-07-26T14:01:52.946Z,29.50
2022-07-26T14:04:56.269Z,29.30
2022-07-26T14:08:02.665Z,29.00
2022-07-26T14:11:06.552Z,28.80
2022-07-26T14:14:10.344Z,28.40
2022-07-26T14:17:15.361Z,27.80
2022-07-26T14:20:18.933Z,27.60
2022-07-26T14:23:23.483Z,27.40
2022-07-26T14:26:30.313Z,27.10
2022-07-26T14:29:34.261Z,26.90
2022-07-26T14:32:39.309Z,26.60
2022-07-26T14:35:43.988Z,26.30
2022-07-26T14:38:47.818Z,26.00
2022-07-26T14:41:51.513Z,25.50
2022-07-26T14:44:55.392Z,25.40
2022-07-26T14:48:00.588Z,25.10
2022-07-26T14:51:09.550Z,24.90
2022-07-26T14:54:14.819Z,24.90
2022-07-26T14:57:19.833Z,24.70
2022-07-26T15:00:25.366Z,24.30
2022-07-26T15:03:33.678Z,23.80
2022-07-26T15:06:37.357Z,23.40
2022-07-26T15:09:41.011Z,23.20
2022-07-26T15:12:45.401Z,22.90
2022-07-26T15:15:48.835Z,22.70
2022-07-26T15:18:53.646Z,22.40
2022-07-26T15:21:57.072Z,22.00
2022-07-26T15:25:00.637Z,21.00
2022-07-26T15:28:04.394Z,20.00
2022-07-26T15:31:07.882Z,19.50
2022-07-26T15:34:13.064Z,19.10
2022-07-26T15:37:16.701Z,18.90
2022-07-26T15:40:20.915Z,18.70
2022-07-26T15:43:48.319Z,18.60
2022-07-26T15:46:49.851Z,18.60
2022-07-26T15:49:54.508Z,18.50
2022-07-26T15:57:45.134Z,18.30
2022-07-26T16:00:49.652Z,18.20
2022-07-26T16:03:52.994Z,18.10
2022-07-26T16:06:57.694Z,18.10
2022-07-26T16:14:55.172Z,18.10
2022-07-26T16:18:02.922Z,18.10
2022-07-26T16:21:09.323Z,18.10
2022-07-26T16:24:14.015Z,18.10
2022-07-26T16:27:17.648Z,18.10
2022-07-26T16:30:21.991Z,18.20
2022-07-26T16:33:25.339Z,18.10
2022-07-26T16:36:28.931Z,18.20
2022-07-26T16:39:33.737Z,18.20
2022-07-26T16:42:39.064Z,18.20
2022-07-26T16:45:43.076Z,18.20
2022-07-26T16:48:46.812Z,18.20
2022-07-26T16:51:50.609Z,18.20
2022-07-26T16:54:55.477Z,18.30
2022-07-26T16:57:58.790Z,18.30
2022-07-26T17:01:02.275Z,18.30
2022-07-26T17:04:06.018Z,18.40
2022-07-26T17:07:26.050Z,18.30
2022-07-26T17:10:30.967Z,18.40
2022-07-26T17:13:34.313Z,18.40
2022-07-26T17:16:37.908Z,18.40
2022-07-26T17:19:41.744Z,18.40
2022-07-26T17:22:45.180Z,18.40
2022-07-26T17:25:49.956Z,18.30
2022-07-26T17:28:53.250Z,18.40
2022-07-26T17:31:56.606Z,18.40
2022-07-26T17:34:59.988Z,18.30
2022-07-26T17:38:04.126Z,18.30
2022-07-26T17:41:10.742Z,18.30
2022-07-26T17:44:22.206Z,18.30
2022-07-26T17:47:29.265Z,18.20
2022-07-26T17:50:36.850Z,18.20
2022-07-26T17:53:42.275Z,18.20
2022-07-26T17:56:47.127Z,18.20
2022-07-26T17:59:50.520Z,18.10
2022-07-26T18:02:54.176Z,18.10
2022-07-26T18:05:58.591Z,18.00
2022-07-26T18:09:06.797Z,18.00
2022-07-26T18:12:12.319Z,18.20
2022-07-26T18:15:16.404Z,17.80
2022-07-26T18:18:20.943Z,17.80
2022-07-26T18:21:24.589Z,17.70
2022-07-26T18:24:28.141Z,17.70
2022-07-26T18:27:33.276Z,17.60
2022-07-26T18:30:37.702Z,17.60
2022-07-26T18:33:41.230Z,17.60
2022-07-26T18:36:44.768Z,17.50
2022-07-26T18:39:49.938Z,17.50
2022-07-26T18:42:56.376Z,17.50
2022-07-26T18:46:05.567Z,17.50
2022-07-26T18:49:14.061Z,17.50
2022-07-26T18:52:31.604Z,17.50
2022-07-26T18:55:36.263Z,17.50
2022-07-26T18:58:41.551Z,17.50
2022-07-26T19:01:45.152Z,17.40
2022-07-26T19:04:49.082Z,17.40
2022-07-26T19:07:53.378Z,17.30
2022-07-26T19:10:57.748Z,17.30
2022-07-26T19:14:02.887Z,17.20
2022-07-26T19:17:09.990Z,17.20
2022-07-26T19:20:14.011Z,17.20
2022-07-26T19:23:17.525Z,17.10
2022-07-26T19:26:23.439Z,17.10
2022-07-26T19:29:28.675Z,17.00
2022-07-26T19:32:33.705Z,17.00
2022-07-26T19:35:37.362Z,16.90
2022-07-26T19:38:41.228Z,16.90
2022-07-26T19:41:46.298Z,16.80
2022-07-26T19:44:51.319Z,16.80
2022-07-26T19:47:55.152Z,16.80
2022-07-26T19:51:00.637Z,16.80
2022-07-26T19:54:04.565Z,16.70
2022-07-26T19:57:08.354Z,16.60
2022-07-26T20:00:15.107Z,16.60
2022-07-26T20:03:19.410Z,16.60
2022-07-26T20:06:23.822Z,16.70
2022-07-26T20:09:30.380Z,16.70
2022-07-26T20:12:34.993Z,16.60
2022-07-26T20:15:40.261Z,16.60
2022-07-26T20:18:43.939Z,16.60
2022-07-26T20:21:48.279Z,16.50
2022-07-26T20:24:56.221Z,16.60
2022-07-26T20:27:59.900Z,16.60
2022-07-26T20:31:07.645Z,16.60
2022-07-26T20:34:12.676Z,15.20
2022-07-26T20:37:16.294Z,16.50
2022-07-26T20:40:19.822Z,16.50
2022-07-26T20:43:23.538Z,16.50
2022-07-26T20:46:31.470Z,16.50
2022-07-26T20:49:35.183Z,16.50
2022-07-26T20:52:40.438Z,16.40
2022-07-26T20:55:44.772Z,16.40
2022-07-26T20:58:50.460Z,16.30
2022-07-26T21:01:55.718Z,16.20
2022-07-26T21:05:05.016Z,16.10
2022-07-26T21:08:09.331Z,16.10
2022-07-26T21:11:12.950Z,16.00
2022-07-26T21:14:16.704Z,16.00
2022-07-26T21:17:21.545Z,16.00
2022-07-26T21:20:37.458Z,15.90
2022-07-26T21:23:41.452Z,15.90
2022-07-26T21:26:45.588Z,15.90
2022-07-26T21:29:49.067Z,15.90
2022-07-26T21:32:53.964Z,15.90
2022-07-26T21:35:57.386Z,15.90
2022-07-26T21:39:01.173Z,15.80
2022-07-26T21:42:05.395Z,15.80
2022-07-26T21:45:09.483Z,15.80
2022-07-26T21:48:14.253Z,15.80
2022-07-26T21:51:17.685Z,15.80
2022-07-26T21:54:21.006Z,15.80
2022-07-26T21:57:24.424Z,15.80
2022-07-26T22:00:27.823Z,15.70
2022-07-26T22:03:33.352Z,15.70
2022-07-26T22:06:36.861Z,15.60
2022-07-26T22:09:40.306Z,15.70
2022-07-26T22:12:43.719Z,15.60
2022-07-26T22:15:47.851Z,15.60
2022-07-26T22:18:52.812Z,15.60
2022-07-26T22:21:56.173Z,15.60
2022-07-26T22:24:59.465Z,15.60
2022-07-26T22:28:04.211Z,15.60
2022-07-26T22:31:07.530Z,15.70
2022-07-26T22:34:12.268Z,15.60
2022-07-26T22:37:15.826Z,15.70
2022-07-26T22:40:20.114Z,15.70
2022-07-26T22:43:23.560Z,15.70
2022-07-26T22:46:27.504Z,15.70
2022-07-26T22:49:34.240Z,15.70
2022-07-26T22:52:38.220Z,15.70
2022-07-26T22:55:42.078Z,15.70
2022-07-26T22:58:45.380Z,15.70
2022-07-26T23:01:48.714Z,15.60
2022-07-26T23:04:53.433Z,15.60
2022-07-26T23:08:00.412Z,15.70
2022-07-26T23:11:07.237Z,15.60
2022-07-26T23:14:11.395Z,15.70
2022-07-26T23:17:15.068Z,15.60
2022-07-26T23:20:19.819Z,15.60
2022-07-26T23:23:23.179Z,15.50
2022-07-26T23:26:28.741Z,15.50
2022-07-26T23:29:32.168Z,15.50
2022-07-26T23:32:35.520Z,15.40
2022-07-26T23:35:40.172Z,15.40
2022-07-26T23:38:43.498Z,15.40
2022-07-26T23:41:46.778Z,15.40
2022-07-26T23:44:50.110Z,15.50
2022-07-26T23:47:53.646Z,15.40
2022-07-26T23:50:58.423Z,15.40
2022-07-26T23:54:01.713Z,15.30
2022-07-26T23:57:05.229Z,15.30
